sensor_id;sensor_type;location;lat;lon;timestamp;pressure;altitude;pressure_sealevel;temperature;humidity
59106;BME280;44891;50.204;8.132;2023-11-18T00:00:01;99073.44;;;3.05;100.00
59106;BME280;44891;50.204;8.132;2023-11-18T00:04:05;99068.25;;;2.97;100.00
59106;BME280;44891;50.204;8.132;2023-11-18T00:08:11;99058.38;;;2.92;100.00
59106;BME280;44891;50.204;8.132;2023-11-18T00:12:13;99061.69;;;2.78;100.00
59106;BME280;44891;50.204;8.132;2023-11-18T00:16:15;99067.81;;;2.77;100.00
59106;BME280;44891;50.204;8.132;2023-11-18T00:20:17;99076.31;;;2.71;100.00
59106;BME280;44891;50.204;8.132;2023-11-18T00:24:22;99070.31;;;2.62;100.00
59106;BME280;44891;50.204;8.132;2023-11-18T00:28:24;99069.53;;;2.54;100.00
59106;BME280;44891;50.204;8.132;2023-11-18T00:32:26;99073.25;;;2.59;100.00
59106;BME280;44891;50.204;8.132;2023-11-18T00:36:27;99065.16;;;2.30;100.00
59106;BME280;44891;50.204;8.132;2023-11-18T00:40:31;99061.75;;;2.45;100.00
59106;BME280;44891;50.204;8.132;2023-11-18T00:44:33;99065.81;;;2.48;100.00
59106;BME280;44891;50.204;8.132;2023-11-18T00:48:35;99065.97;;;2.30;100.00
59106;BME280;44891;50.204;8.132;2023-11-18T00:52:37;99077.50;;;2.28;100.00
59106;BME280;44891;50.204;8.132;2023-11-18T00:56:43;99068.78;;;2.12;100.00
59106;BME280;44891;50.204;8.132;2023-11-18T01:00:44;99073.13;;;1.87;100.00
59106;BME280;44891;50.204;8.132;2023-11-18T01:04:46;99072.97;;;1.81;100.00
59106;BME280;44891;50.204;8.132;2023-11-18T01:08:49;99066.81;;;2.06;100.00
59106;BME280;44891;50.204;8.132;2023-11-18T01:12:52;99065.03;;;2.07;100.00
59106;BME280;44891;50.204;8.132;2023-11-18T01:16:56;99066.81;;;1.66;100.00
59106;BME280;44891;50.204;8.132;2023-11-18T01:20:58;99070.38;;;1.97;100.00
59106;BME280;44891;50.204;8.132;2023-11-18T01:25:01;99078.16;;;1.81;100.00
59106;BME280;44891;50.204;8.132;2023-11-18T01:29:04;99070.19;;;1.90;100.00
59106;BME280;44891;50.204;8.132;2023-11-18T01:33:06;99066.13;;;1.72;100.00
59106;BME280;44891;50.204;8.132;2023-11-18T01:37:08;99057.44;;;1.73;100.00
59106;BME280;44891;50.204;8.132;2023-11-18T01:41:10;99046.25;;;1.80;100.00
59106;BME280;44891;50.204;8.132;2023-11-18T01:45:13;99051.25;;;1.57;100.00
59106;BME280;44891;50.204;8.132;2023-11-18T01:49:17;99049.78;;;1.55;100.00
59106;BME280;44891;50.204;8.132;2023-11-18T01:53:20;99056.88;;;1.45;100.00
59106;BME280;44891;50.204;8.132;2023-11-18T01:57:23;99047.53;;;1.68;100.00
59106;BME280;44891;50.204;8.132;2023-11-18T02:01:28;99060.44;;;1.52;100.00
59106;BME280;44891;50.204;8.132;2023-11-18T02:05:31;99058.31;;;1.31;100.00
59106;BME280;44891;50.204;8.132;2023-11-18T02:09:35;99066.59;;;1.43;100.00
59106;BME280;44891;50.204;8.132;2023-11-18T02:13:38;99063.00;;;1.35;100.00
59106;BME280;44891;50.204;8.132;2023-11-18T02:17:43;99069.06;;;1.52;100.00
59106;BME280;44891;50.204;8.132;2023-11-18T02:21:47;99075.84;;;1.70;100.00
59106;BME280;44891;50.204;8.132;2023-11-18T02:25:51;99087.00;;;1.62;100.00
59106;BME280;44891;50.204;8.132;2023-11-18T02:29:53;99076.84;;;1.69;100.00
59106;BME280;44891;50.204;8.132;2023-11-18T02:33:58;99074.41;;;1.59;100.00
59106;BME280;44891;50.204;8.132;2023-11-18T02:38:04;99066.63;;;1.67;100.00
59106;BME280;44891;50.204;8.132;2023-11-18T02:42:09;99076.81;;;1.60;100.00
59106;BME280;44891;50.204;8.132;2023-11-18T02:46:13;99076.47;;;1.39;100.00
59106;BME280;44891;50.204;8.132;2023-11-18T02:50:15;99070.59;;;1.37;100.00
59106;BME280;44891;50.204;8.132;2023-11-18T02:54:19;99060.56;;;1.26;100.00
59106;BME280;44891;50.204;8.132;2023-11-18T02:58:23;99057.56;;;0.96;100.00
59106;BME280;44891;50.204;8.132;2023-11-18T03:02:25;99056.31;;;1.08;100.00
59106;BME280;44891;50.204;8.132;2023-11-18T03:06:28;99064.50;;;0.96;100.00
59106;BME280;44891;50.204;8.132;2023-11-18T03:10:30;99055.59;;;0.90;100.00
59106;BME280;44891;50.204;8.132;2023-11-18T03:14:35;99058.25;;;1.06;100.00
59106;BME280;44891;50.204;8.132;2023-11-18T03:18:38;99041.16;;;1.22;100.00
59106;BME280;44891;50.204;8.132;2023-11-18T03:22:40;99032.56;;;1.21;100.00
59106;BME280;44891;50.204;8.132;2023-11-18T03:26:42;99043.66;;;1.05;100.00
59106;BME280;44891;50.204;8.132;2023-11-18T03:30:45;99054.09;;;1.22;100.00
59106;BME280;44891;50.204;8.132;2023-11-18T03:34:48;99061.38;;;1.26;100.00
59106;BME280;44891;50.204;8.132;2023-11-18T03:38:50;99055.97;;;1.03;100.00
59106;BME280;44891;50.204;8.132;2023-11-18T03:42:52;99059.81;;;1.50;100.00
59106;BME280;44891;50.204;8.132;2023-11-18T03:46:56;99065.25;;;1.30;100.00
59106;BME280;44891;50.204;8.132;2023-11-18T03:50:57;99051.88;;;1.43;100.00
59106;BME280;44891;50.204;8.132;2023-11-18T03:54:59;99038.13;;;1.43;100.00
59106;BME280;44891;50.204;8.132;2023-11-18T03:59:01;99032.69;;;1.78;100.00
59106;BME280;44891;50.204;8.132;2023-11-18T04:03:06;99030.72;;;1.72;100.00
59106;BME280;44891;50.204;8.132;2023-11-18T04:07:08;99045.25;;;1.49;100.00
59106;BME280;44891;50.204;8.132;2023-11-18T04:11:10;99032.34;;;1.73;100.00
59106;BME280;44891;50.204;8.132;2023-11-18T04:15:12;99026.34;;;1.73;100.00
59106;BME280;44891;50.204;8.132;2023-11-18T04:19:15;99025.84;;;1.61;100.00
59106;BME280;44891;50.204;8.132;2023-11-18T04:23:17;99025.22;;;1.92;100.00
59106;BME280;44891;50.204;8.132;2023-11-18T04:27:19;98983.97;;;1.66;100.00
59106;BME280;44891;50.204;8.132;2023-11-18T04:31:22;99032.81;;;2.01;100.00
59106;BME280;44891;50.204;8.132;2023-11-18T04:35:25;99035.41;;;1.77;100.00
59106;BME280;44891;50.204;8.132;2023-11-18T04:39:27;99045.78;;;2.01;100.00
59106;BME280;44891;50.204;8.132;2023-11-18T04:43:30;99049.16;;;2.26;100.00
59106;BME280;44891;50.204;8.132;2023-11-18T04:47:33;99053.38;;;2.03;100.00
59106;BME280;44891;50.204;8.132;2023-11-18T04:51:36;99041.56;;;2.08;100.00
59106;BME280;44891;50.204;8.132;2023-11-18T04:55:38;99039.47;;;1.96;100.00
59106;BME280;44891;50.204;8.132;2023-11-18T04:59:41;99044.00;;;1.94;100.00
59106;BME280;44891;50.204;8.132;2023-11-18T05:03:43;99023.75;;;2.05;100.00
59106;BME280;44891;50.204;8.132;2023-11-18T05:07:46;99025.38;;;2.06;100.00
59106;BME280;44891;50.204;8.132;2023-11-18T05:11:48;99019.38;;;2.06;100.00
59106;BME280;44891;50.204;8.132;2023-11-18T05:15:49;99026.94;;;2.24;100.00
59106;BME280;44891;50.204;8.132;2023-11-18T05:19:54;99018.88;;;2.27;100.00
59106;BME280;44891;50.204;8.132;2023-11-18T05:23:58;99003.13;;;2.36;100.00
59106;BME280;44891;50.204;8.132;2023-11-18T05:27:59;98992.06;;;2.59;100.00
59106;BME280;44891;50.204;8.132;2023-11-18T05:32:01;98992.47;;;2.79;100.00
59106;BME280;44891;50.204;8.132;2023-11-18T05:36:04;99009.06;;;3.32;100.00
59106;BME280;44891;50.204;8.132;2023-11-18T05:40:09;99008.75;;;3.49;100.00
59106;BME280;44891;50.204;8.132;2023-11-18T05:44:15;99016.63;;;3.64;100.00
59106;BME280;44891;50.204;8.132;2023-11-18T05:48:19;99006.06;;;3.66;100.00
59106;BME280;44891;50.204;8.132;2023-11-18T05:52:22;99003.63;;;3.18;100.00
59106;BME280;44891;50.204;8.132;2023-11-18T05:56:25;99011.78;;;3.30;100.00
59106;BME280;44891;50.204;8.132;2023-11-18T06:00:27;99000.28;;;3.55;100.00
59106;BME280;44891;50.204;8.132;2023-11-18T06:04:31;99005.31;;;3.95;100.00
59106;BME280;44891;50.204;8.132;2023-11-18T06:08:33;99008.69;;;4.03;100.00
59106;BME280;44891;50.204;8.132;2023-11-18T06:12:36;99011.72;;;4.22;100.00
59106;BME280;44891;50.204;8.132;2023-11-18T06:16:40;99007.00;;;4.25;100.00
59106;BME280;44891;50.204;8.132;2023-11-18T06:20:42;99000.28;;;4.31;100.00
59106;BME280;44891;50.204;8.132;2023-11-18T06:24:44;98996.16;;;4.36;100.00
59106;BME280;44891;50.204;8.132;2023-11-18T06:28:48;98998.88;;;4.43;100.00
59106;BME280;44891;50.204;8.132;2023-11-18T06:32:50;98999.09;;;4.33;100.00
59106;BME280;44891;50.204;8.132;2023-11-18T06:36:52;99000.38;;;4.38;100.00
59106;BME280;44891;50.204;8.132;2023-11-18T06:40:54;99007.19;;;4.39;100.00
59106;BME280;44891;50.204;8.132;2023-11-18T06:44:58;99007.63;;;4.42;100.00
59106;BME280;44891;50.204;8.132;2023-11-18T06:49:03;98992.47;;;4.46;100.00
59106;BME280;44891;50.204;8.132;2023-11-18T06:53:06;99005.47;;;4.46;100.00
59106;BME280;44891;50.204;8.132;2023-11-18T06:57:09;98997.06;;;4.44;100.00
59106;BME280;44891;50.204;8.132;2023-11-18T07:01:13;98989.59;;;4.41;100.00
59106;BME280;44891;50.204;8.132;2023-11-18T07:05:15;98992.84;;;4.43;100.00
59106;BME280;44891;50.204;8.132;2023-11-18T07:09:18;98984.69;;;4.46;100.00
59106;BME280;44891;50.204;8.132;2023-11-18T07:13:21;98979.19;;;4.41;100.00
59106;BME280;44891;50.204;8.132;2023-11-18T07:17:25;98972.84;;;4.43;100.00
59106;BME280;44891;50.204;8.132;2023-11-18T07:21:26;98989.97;;;4.52;100.00
59106;BME280;44891;50.204;8.132;2023-11-18T07:25:28;99000.19;;;4.54;100.00
59106;BME280;44891;50.204;8.132;2023-11-18T07:29:30;99010.44;;;4.70;100.00
59106;BME280;44891;50.204;8.132;2023-11-18T07:33:34;99009.59;;;4.84;100.00
59106;BME280;44891;50.204;8.132;2023-11-18T07:37:36;98995.44;;;4.72;100.00
59106;BME280;44891;50.204;8.132;2023-11-18T07:41:38;99010.13;;;4.80;100.00
59106;BME280;44891;50.204;8.132;2023-11-18T07:45:40;99009.34;;;4.79;100.00
59106;BME280;44891;50.204;8.132;2023-11-18T07:49:44;99020.63;;;4.86;100.00
59106;BME280;44891;50.204;8.132;2023-11-18T07:53:46;99025.84;;;4.86;100.00
59106;BME280;44891;50.204;8.132;2023-11-18T07:57:47;99030.69;;;5.26;100.00
59106;BME280;44891;50.204;8.132;2023-11-18T08:01:49;99021.75;;;5.13;100.00
59106;BME280;44891;50.204;8.132;2023-11-18T08:05:52;99015.75;;;5.13;100.00
59106;BME280;44891;50.204;8.132;2023-11-18T08:09:55;99023.84;;;5.03;100.00
59106;BME280;44891;50.204;8.132;2023-11-18T08:13:58;99039.28;;;5.05;100.00
59106;BME280;44891;50.204;8.132;2023-11-18T08:18:00;99028.72;;;5.28;100.00
59106;BME280;44891;50.204;8.132;2023-11-18T08:22:03;99021.47;;;5.23;100.00
59106;BME280;44891;50.204;8.132;2023-11-18T08:26:06;99005.91;;;5.30;100.00
59106;BME280;44891;50.204;8.132;2023-11-18T08:30:09;99003.81;;;5.40;100.00
59106;BME280;44891;50.204;8.132;2023-11-18T08:34:12;99002.88;;;5.47;100.00
59106;BME280;44891;50.204;8.132;2023-11-18T08:38:16;98996.84;;;5.47;100.00
59106;BME280;44891;50.204;8.132;2023-11-18T08:42:18;98992.97;;;5.36;100.00
59106;BME280;44891;50.204;8.132;2023-11-18T08:46:20;98978.81;;;5.45;100.00
59106;BME280;44891;50.204;8.132;2023-11-18T08:50:22;98977.94;;;5.60;100.00
59106;BME280;44891;50.204;8.132;2023-11-18T08:54:26;98986.94;;;5.57;100.00
59106;BME280;44891;50.204;8.132;2023-11-18T08:58:37;98979.75;;;5.59;100.00
59106;BME280;44891;50.204;8.132;2023-11-18T09:02:40;98984.59;;;5.62;100.00
59106;BME280;44891;50.204;8.132;2023-11-18T09:06:44;98987.19;;;5.62;100.00
59106;BME280;44891;50.204;8.132;2023-11-18T09:10:47;98992.16;;;5.57;100.00
59106;BME280;44891;50.204;8.132;2023-11-18T09:14:49;98996.97;;;5.60;100.00
59106;BME280;44891;50.204;8.132;2023-11-18T09:18:52;98986.25;;;5.70;100.00
59106;BME280;44891;50.204;8.132;2023-11-18T09:22:54;98981.34;;;5.60;100.00
59106;BME280;44891;50.204;8.132;2023-11-18T09:26:57;98989.44;;;5.44;100.00
59106;BME280;44891;50.204;8.132;2023-11-18T09:31:00;98983.72;;;5.55;100.00
59106;BME280;44891;50.204;8.132;2023-11-18T09:35:03;98999.47;;;5.47;100.00
59106;BME280;44891;50.204;8.132;2023-11-18T09:39:09;98997.72;;;5.54;100.00
59106;BME280;44891;50.204;8.132;2023-11-18T09:43:18;99006.19;;;5.56;100.00
59106;BME280;44891;50.204;8.132;2023-11-18T09:47:22;98998.84;;;5.45;100.00
59106;BME280;44891;50.204;8.132;2023-11-18T09:51:26;98996.38;;;5.58;100.00
59106;BME280;44891;50.204;8.132;2023-11-18T09:55:32;98989.63;;;5.42;100.00
59106;BME280;44891;50.204;8.132;2023-11-18T09:59:45;99000.16;;;5.56;100.00
59106;BME280;44891;50.204;8.132;2023-11-18T10:03:55;98994.50;;;5.52;100.00
59106;BME280;44891;50.204;8.132;2023-11-18T10:07:58;99011.00;;;5.59;100.00
59106;BME280;44891;50.204;8.132;2023-11-18T10:12:02;99011.53;;;5.48;100.00
59106;BME280;44891;50.204;8.132;2023-11-18T10:16:07;99010.41;;;5.57;100.00
59106;BME280;44891;50.204;8.132;2023-11-18T10:20:10;99007.41;;;5.39;100.00
59106;BME280;44891;50.204;8.132;2023-11-18T10:24:16;99009.19;;;5.38;100.00
59106;BME280;44891;50.204;8.132;2023-11-18T10:28:21;98999.09;;;5.50;100.00
59106;BME280;44891;50.204;8.132;2023-11-18T10:32:24;98982.69;;;5.50;100.00
59106;BME280;44891;50.204;8.132;2023-11-18T10:36:28;98986.25;;;5.27;100.00
59106;BME280;44891;50.204;8.132;2023-11-18T10:40:31;98985.63;;;5.46;100.00
59106;BME280;44891;50.204;8.132;2023-11-18T10:44:35;98964.94;;;5.38;100.00
59106;BME280;44891;50.204;8.132;2023-11-18T10:48:39;98955.06;;;5.34;100.00
59106;BME280;44891;50.204;8.132;2023-11-18T10:52:43;98944.91;;;5.39;100.00
59106;BME280;44891;50.204;8.132;2023-11-18T10:56:47;98952.66;;;5.32;100.00
59106;BME280;44891;50.204;8.132;2023-11-18T11:00:49;98944.09;;;5.38;100.00
59106;BME280;44891;50.204;8.132;2023-11-18T11:04:53;98939.56;;;5.26;100.00
59106;BME280;44891;50.204;8.132;2023-11-18T11:08:56;98924.69;;;5.19;100.00
59106;BME280;44891;50.204;8.132;2023-11-18T11:13:00;98922.47;;;5.16;100.00
59106;BME280;44891;50.204;8.132;2023-11-18T11:17:05;98927.22;;;5.13;100.00
59106;BME280;44891;50.204;8.132;2023-11-18T11:21:14;98916.13;;;5.04;100.00
59106;BME280;44891;50.204;8.132;2023-11-18T11:25:19;98902.78;;;5.14;100.00
59106;BME280;44891;50.204;8.132;2023-11-18T11:29:25;98887.75;;;5.09;100.00
59106;BME280;44891;50.204;8.132;2023-11-18T11:33:29;98878.22;;;5.02;100.00
59106;BME280;44891;50.204;8.132;2023-11-18T11:37:38;98885.94;;;5.10;100.00
59106;BME280;44891;50.204;8.132;2023-11-18T11:41:43;98884.09;;;5.04;100.00
59106;BME280;44891;50.204;8.132;2023-11-18T11:45:46;98879.69;;;5.04;100.00
59106;BME280;44891;50.204;8.132;2023-11-18T11:49:50;98866.22;;;5.01;100.00
59106;BME280;44891;50.204;8.132;2023-11-18T11:54:00;98859.59;;;4.98;100.00
59106;BME280;44891;50.204;8.132;2023-11-18T11:58:06;98860.19;;;5.00;100.00
59106;BME280;44891;50.204;8.132;2023-11-18T12:02:26;98847.69;;;5.10;100.00
59106;BME280;44891;50.204;8.132;2023-11-18T12:06:30;98845.91;;;5.11;100.00
59106;BME280;44891;50.204;8.132;2023-11-18T12:10:34;98846.38;;;5.21;100.00
59106;BME280;44891;50.204;8.132;2023-11-18T12:14:50;98846.81;;;5.25;100.00
59106;BME280;44891;50.204;8.132;2023-11-18T12:23:10;98843.66;;;5.29;100.00
59106;BME280;44891;50.204;8.132;2023-11-18T12:27:20;98850.81;;;5.27;100.00
59106;BME280;44891;50.204;8.132;2023-11-18T12:31:44;98850.81;;;5.27;100.00
59106;BME280;44891;50.204;8.132;2023-11-18T12:36:03;98843.47;;;5.31;100.00
59106;BME280;44891;50.204;8.132;2023-11-18T12:40:23;98831.91;;;5.40;100.00
59106;BME280;44891;50.204;8.132;2023-11-18T12:44:29;98822.91;;;5.42;100.00
59106;BME280;44891;50.204;8.132;2023-11-18T12:48:33;98797.34;;;5.59;100.00
59106;BME280;44891;50.204;8.132;2023-11-18T12:52:37;98789.91;;;5.50;100.00
59106;BME280;44891;50.204;8.132;2023-11-18T12:56:39;98784.72;;;5.56;100.00
59106;BME280;44891;50.204;8.132;2023-11-18T13:00:46;98766.28;;;5.58;100.00
59106;BME280;44891;50.204;8.132;2023-11-18T13:04:48;98763.84;;;5.50;100.00
59106;BME280;44891;50.204;8.132;2023-11-18T13:08:50;98747.63;;;5.54;100.00
59106;BME280;44891;50.204;8.132;2023-11-18T13:12:52;98744.03;;;5.55;100.00
59106;BME280;44891;50.204;8.132;2023-11-18T13:16:55;98725.56;;;5.50;100.00
59106;BME280;44891;50.204;8.132;2023-11-18T13:20:57;98735.78;;;5.52;100.00
59106;BME280;44891;50.204;8.132;2023-11-18T13:24:59;98738.41;;;5.52;100.00
59106;BME280;44891;50.204;8.132;2023-11-18T13:29:01;98725.97;;;5.54;100.00
59106;BME280;44891;50.204;8.132;2023-11-18T13:33:04;98708.53;;;5.54;100.00
59106;BME280;44891;50.204;8.132;2023-11-18T13:37:08;98709.97;;;5.57;100.00
59106;BME280;44891;50.204;8.132;2023-11-18T13:41:11;98705.94;;;5.54;100.00
59106;BME280;44891;50.204;8.132;2023-11-18T13:45:13;98712.63;;;5.63;100.00
59106;BME280;44891;50.204;8.132;2023-11-18T13:49:21;98716.38;;;5.61;100.00
59106;BME280;44891;50.204;8.132;2023-11-18T13:53:23;98711.84;;;5.69;100.00
59106;BME280;44891;50.204;8.132;2023-11-18T13:57:25;98707.63;;;5.68;100.00
59106;BME280;44891;50.204;8.132;2023-11-18T14:01:28;98700.44;;;5.77;100.00
59106;BME280;44891;50.204;8.132;2023-11-18T14:05:32;98696.81;;;5.71;100.00
59106;BME280;44891;50.204;8.132;2023-11-18T14:09:34;98685.16;;;5.67;100.00
59106;BME280;44891;50.204;8.132;2023-11-18T14:13:40;98697.59;;;5.72;100.00
59106;BME280;44891;50.204;8.132;2023-11-18T14:17:42;98680.97;;;5.73;100.00
59106;BME280;44891;50.204;8.132;2023-11-18T14:21:45;98683.56;;;5.73;100.00
59106;BME280;44891;50.204;8.132;2023-11-18T14:25:47;98667.94;;;5.73;100.00
59106;BME280;44891;50.204;8.132;2023-11-18T14:29:49;98677.56;;;5.72;100.00
59106;BME280;44891;50.204;8.132;2023-11-18T14:33:51;98671.19;;;5.75;100.00
59106;BME280;44891;50.204;8.132;2023-11-18T14:37:54;98675.19;;;5.78;100.00
59106;BME280;44891;50.204;8.132;2023-11-18T14:41:56;98656.94;;;5.78;100.00
59106;BME280;44891;50.204;8.132;2023-11-18T14:45:59;98661.75;;;5.81;100.00
59106;BME280;44891;50.204;8.132;2023-11-18T14:50:01;98649.53;;;5.81;100.00
59106;BME280;44891;50.204;8.132;2023-11-18T14:54:07;98631.91;;;5.83;100.00
59106;BME280;44891;50.204;8.132;2023-11-18T14:58:09;98628.50;;;5.83;100.00
59106;BME280;44891;50.204;8.132;2023-11-18T15:02:12;98613.88;;;5.88;100.00
59106;BME280;44891;50.204;8.132;2023-11-18T15:06:23;98589.41;;;5.89;100.00
59106;BME280;44891;50.204;8.132;2023-11-18T15:10:27;98585.00;;;5.90;100.00
59106;BME280;44891;50.204;8.132;2023-11-18T15:14:29;98589.41;;;5.89;100.00
59106;BME280;44891;50.204;8.132;2023-11-18T15:18:31;98563.34;;;5.89;100.00
59106;BME280;44891;50.204;8.132;2023-11-18T15:22:32;98565.72;;;5.84;100.00
59106;BME280;44891;50.204;8.132;2023-11-18T15:26:36;98549.50;;;5.76;100.00
59106;BME280;44891;50.204;8.132;2023-11-18T15:30:37;98555.31;;;5.84;100.00
59106;BME280;44891;50.204;8.132;2023-11-18T15:34:39;98566.53;;;5.78;100.00
59106;BME280;44891;50.204;8.132;2023-11-18T15:38:41;98564.31;;;5.75;100.00
59106;BME280;44891;50.204;8.132;2023-11-18T15:42:45;98537.47;;;5.75;100.00
59106;BME280;44891;50.204;8.132;2023-11-18T15:46:49;98522.81;;;5.73;100.00
59106;BME280;44891;50.204;8.132;2023-11-18T15:50:51;98512.59;;;5.79;100.00
59106;BME280;44891;50.204;8.132;2023-11-18T15:54:53;98498.56;;;5.80;100.00
59106;BME280;44891;50.204;8.132;2023-11-18T15:58:56;98494.34;;;5.85;100.00
59106;BME280;44891;50.204;8.132;2023-11-18T16:02:58;98481.53;;;5.84;100.00
59106;BME280;44891;50.204;8.132;2023-11-18T16:07:00;98470.31;;;5.83;100.00
59106;BME280;44891;50.204;8.132;2023-11-18T16:11:02;98439.63;;;5.85;100.00
59106;BME280;44891;50.204;8.132;2023-11-18T16:15:06;98421.59;;;5.84;100.00
59106;BME280;44891;50.204;8.132;2023-11-18T16:19:08;98422.38;;;5.84;100.00
59106;BME280;44891;50.204;8.132;2023-11-18T16:23:10;98416.16;;;5.85;100.00
59106;BME280;44891;50.204;8.132;2023-11-18T16:27:12;98383.88;;;5.86;100.00
59106;BME280;44891;50.204;8.132;2023-11-18T16:31:16;98379.09;;;5.83;100.00
59106;BME280;44891;50.204;8.132;2023-11-18T16:35:19;98363.47;;;5.83;100.00
59106;BME280;44891;50.204;8.132;2023-11-18T16:39:21;98364.06;;;5.79;100.00
59106;BME280;44891;50.204;8.132;2023-11-18T16:43:23;98359.84;;;5.78;100.00
59106;BME280;44891;50.204;8.132;2023-11-18T16:47:26;98355.25;;;5.73;100.00
59106;BME280;44891;50.204;8.132;2023-11-18T16:51:28;98369.50;;;5.70;100.00
59106;BME280;44891;50.204;8.132;2023-11-18T16:55:30;98378.69;;;5.66;100.00
59106;BME280;44891;50.204;8.132;2023-11-18T16:59:33;98363.06;;;5.66;100.00
59106;BME280;44891;50.204;8.132;2023-11-18T17:03:36;98341.63;;;5.64;100.00
59106;BME280;44891;50.204;8.132;2023-11-18T17:07:38;98321.59;;;5.65;100.00
59106;BME280;44891;50.204;8.132;2023-11-18T17:11:40;98319.78;;;5.65;100.00
59106;BME280;44891;50.204;8.132;2023-11-18T17:15:42;98305.97;;;5.65;100.00
59106;BME280;44891;50.204;8.132;2023-11-18T17:19:48;98312.56;;;5.67;100.00
59106;BME280;44891;50.204;8.132;2023-11-18T17:23:50;98317.19;;;5.65;100.00
59106;BME280;44891;50.204;8.132;2023-11-18T17:27:52;98316.78;;;5.68;100.00
59106;BME280;44891;50.204;8.132;2023-11-18T17:31:54;98310.16;;;5.66;100.00
59106;BME280;44891;50.204;8.132;2023-11-18T17:35:58;98300.75;;;5.65;100.00
59106;BME280;44891;50.204;8.132;2023-11-18T17:40:00;98309.00;;;5.62;100.00
59106;BME280;44891;50.204;8.132;2023-11-18T17:44:03;98282.94;;;5.62;100.00
59106;BME280;44891;50.204;8.132;2023-11-18T17:48:05;98273.31;;;5.62;100.00
59106;BME280;44891;50.204;8.132;2023-11-18T17:52:10;98272.53;;;5.62;100.00
59106;BME280;44891;50.204;8.132;2023-11-18T17:56:13;98261.69;;;5.65;100.00
59106;BME280;44891;50.204;8.132;2023-11-18T18:00:15;98277.53;;;5.63;100.00
59106;BME280;44891;50.204;8.132;2023-11-18T18:04:22;98264.28;;;5.65;100.00
59106;BME280;44891;50.204;8.132;2023-11-18T18:08:26;98266.66;;;5.66;100.00
59106;BME280;44891;50.204;8.132;2023-11-18T18:12:27;98254.25;;;5.68;100.00
59106;BME280;44891;50.204;8.132;2023-11-18T18:16:29;98253.63;;;5.73;100.00
59106;BME280;44891;50.204;8.132;2023-11-18T18:20:31;98241.41;;;5.73;100.00
59106;BME280;44891;50.204;8.132;2023-11-18T18:24:34;98264.44;;;5.83;100.00
59106;BME280;44891;50.204;8.132;2023-11-18T18:28:36;98283.47;;;5.84;100.00
59106;BME280;44891;50.204;8.132;2023-11-18T18:32:38;98282.06;;;5.88;100.00
59106;BME280;44891;50.204;8.132;2023-11-18T18:36:40;98282.47;;;5.85;100.00
59106;BME280;44891;50.204;8.132;2023-11-18T18:40:43;98271.81;;;5.86;100.00
59106;BME280;44891;50.204;8.132;2023-11-18T18:44:45;98281.84;;;5.89;100.00
59106;BME280;44891;50.204;8.132;2023-11-18T18:48:47;98270.22;;;5.85;100.00
59106;BME280;44891;50.204;8.132;2023-11-18T18:52:50;98279.66;;;5.80;100.00
59106;BME280;44891;50.204;8.132;2023-11-18T18:56:53;98283.44;;;5.90;100.00
59106;BME280;44891;50.204;8.132;2023-11-18T19:00:55;98272.22;;;5.96;100.00
59106;BME280;44891;50.204;8.132;2023-11-18T19:04:57;98263.19;;;5.86;100.00
59106;BME280;44891;50.204;8.132;2023-11-18T19:08:59;98235.94;;;5.88;100.00
59106;BME280;44891;50.204;8.132;2023-11-18T19:13:03;98259.81;;;5.92;100.00
59106;BME280;44891;50.204;8.132;2023-11-18T19:17:06;98248.00;;;5.83;100.00
59106;BME280;44891;50.204;8.132;2023-11-18T19:21:08;98243.56;;;5.90;100.00
59106;BME280;44891;50.204;8.132;2023-11-18T19:25:11;98223.31;;;5.92;100.00
59106;BME280;44891;50.204;8.132;2023-11-18T19:29:14;98212.06;;;5.98;100.00
59106;BME280;44891;50.204;8.132;2023-11-18T19:33:16;98198.63;;;6.01;100.00
59106;BME280;44891;50.204;8.132;2023-11-18T19:37:19;98199.00;;;6.05;100.00
59106;BME280;44891;50.204;8.132;2023-11-18T19:41:21;98174.13;;;6.09;100.00
59106;BME280;44891;50.204;8.132;2023-11-18T19:45:25;98166.63;;;6.19;100.00
59106;BME280;44891;50.204;8.132;2023-11-18T19:49:26;98162.25;;;6.13;100.00
59106;BME280;44891;50.204;8.132;2023-11-18T19:53:32;98148.63;;;6.11;100.00
59106;BME280;44891;50.204;8.132;2023-11-18T19:57:33;98174.88;;;6.16;100.00
59106;BME280;44891;50.204;8.132;2023-11-18T20:01:37;98189.69;;;6.22;100.00
59106;BME280;44891;50.204;8.132;2023-11-18T20:05:38;98185.00;;;6.31;100.00
59106;BME280;44891;50.204;8.132;2023-11-18T20:09:40;98194.81;;;6.35;100.00
59106;BME280;44891;50.204;8.132;2023-11-18T20:13:42;98169.25;;;6.44;100.00
59106;BME280;44891;50.204;8.132;2023-11-18T20:17:45;98176.22;;;6.50;100.00
59106;BME280;44891;50.204;8.132;2023-11-18T20:21:49;98172.19;;;6.54;100.00
59106;BME280;44891;50.204;8.132;2023-11-18T20:25:52;98181.69;;;6.67;100.00
59106;BME280;44891;50.204;8.132;2023-11-18T20:29:54;98173.06;;;6.66;100.00
59106;BME280;44891;50.204;8.132;2023-11-18T20:33:57;98161.78;;;6.72;100.00
59106;BME280;44891;50.204;8.132;2023-11-18T20:38:00;98163.03;;;6.70;100.00
59106;BME280;44891;50.204;8.132;2023-11-18T20:42:03;98158.03;;;6.68;100.00
59106;BME280;44891;50.204;8.132;2023-11-18T20:46:06;98159.00;;;6.74;100.00
59106;BME280;44891;50.204;8.132;2023-11-18T20:50:13;98157.75;;;6.76;100.00
59106;BME280;44891;50.204;8.132;2023-11-18T20:54:15;98152.53;;;6.76;100.00
59106;BME280;44891;50.204;8.132;2023-11-18T20:58:16;98144.47;;;6.78;100.00
59106;BME280;44891;50.204;8.132;2023-11-18T21:02:19;98132.81;;;6.80;100.00
59106;BME280;44891;50.204;8.132;2023-11-18T21:06:22;98133.63;;;6.81;100.00
59106;BME280;44891;50.204;8.132;2023-11-18T21:10:24;98118.75;;;6.81;100.00
59106;BME280;44891;50.204;8.132;2023-11-18T21:14:26;98127.72;;;6.86;100.00
59106;BME280;44891;50.204;8.132;2023-11-18T21:18:28;98113.66;;;6.87;100.00
59106;BME280;44891;50.204;8.132;2023-11-18T21:22:31;98111.88;;;6.87;100.00
59106;BME280;44891;50.204;8.132;2023-11-18T21:26:33;98110.00;;;6.94;100.00
59106;BME280;44891;50.204;8.132;2023-11-18T21:30:35;98097.53;;;6.96;100.00